Applegate, CA

2:00 AM PDT on September 22, 2019 (GMT -0700)
Meadow Vista | | Change Station
Active Advisory: Fire Weather Watch

Elev 1995 ft 39.02 °N, 121.00 °W | Updated 17 seconds ago

Clear
Clear
62.2 °F
Feels Like 62.2 °F
N
0
Wind Variable Wind from NNW
Gusts 0.0 mph

Today
High -- | Low -- °F
--% Chance of Precip.
Yesterday
High -- | Low -- °F
Precip. -- in
Pressure 29.95 in
Visibility 10.0 miles
Clouds Clear
Dew Point 49 °F
Humidity 62%
Rainfall 0.00 in
Snow Depth Not available.
6:51 AM 7:01 PM
Waning Gibbous, 47% visible
METAR KAUN 220855Z AUTO 08009KT 10SM CLR 19/10 A2995 RMK A01
Pressure 29.95 in
Visibility 10.0 miles
Clouds Clear
Dew Point 49 °F
Humidity 62%
Rainfall 0.00 in
Snow Depth Not available.
6:51 AM 7:01 PM
Waning Gibbous, 47% visible
METAR KAUN 220855Z AUTO 08009KT 10SM CLR 19/10 A2995 RMK A01

Get Your Daily Forecast Email!

Thanks for signing up!

Be on the lookout for a verification email in your inbox.

You'll start receiving severe weather alerts in your inbox..

×

10-Day Weather Forecast

Almanac

Astronomy

Sep. 22, 2019 Rise Set
Actual Time
Civil Twilight
Nautical Twilight
Astronomical Twilight
Moon
Length of Visible Light
Length of Day
Tomorrow will be .
, % of the Moon is Illuminated

Today's Extremes

State Highs State Lows

Community

WunderPhotos

Category 6

Welcome to Category 6. This is the collective home for Weather Underground's featured writeups by Dr. Jeff Masters (right), Bob Henson (left), Chris Burt, and other regular contributors.

Nearby

Air Quality

  Air Quality AQ Index Pollutant
Not available.

Snow Depth

Station Depth Elevation

Earthquake Activity

City Distance Mag. Time & Date
Minimum magnitude displayed is 2.5.

Coastal Water Temperatures

Place Temperature

Stations

Nearby Weather Stations

Station Location Temp. Windchill Dew Point Humidity Wind Precip. Elev Updated Type
                   

Watches & Warnings

Fire Weather Watch
Issued: 12:35 PM PDT Sep. 21, 2019 – National Weather Service

... Fire Weather Watch now in effect from Monday afternoon through
Wednesday morning for gusty wind and low humidity for fire
weather zones 213, 215, 216, 217, 263, 264, 266, and 279...

* affected area... fire weather zone 213, 215, 216, 217, 263, 264,
266, and 279.

* Wind... north wind 10 to 25 mph with local gusts 30 to 40 mph.

* Humidity... widespread minimum daytime humidity in the teens with
poor overnight recoveries of 30 to 40 percent, locally lower.

* Highest threat... western side of the Sacramento Valley and
adjacent foothills, where the highest wind gusts and lowest
humidity are expected.

* Impacts... any fires that develop will likely spread rapidly.
Outdoor burning is not recommended.

Precautionary/preparedness actions...

A Fire Weather Watch means that critical fire weather conditions
are forecast to occur. Keep up to date with the forecast and
possible red flag warnings.


Interact with US via social media
www.Facebook.Com/NWS.Sacramento
www.Twitter.Com/nwssacramento